Time;durP1;ratioP1;P1;durP2;ratioP2;P2;SDS_P1;SDS_P2;PMS_P1;PMS_P2;Temp;Humidity;BMP_temperature;BMP_pressure;BME280_temperature;BME280_humidity;BME280_pressure;Samples;Min_cycle;Max_cycle;Signal;HPM_P1;HPM_P2
2022/04/14 00:01:12;;;;;;;21.60;13.00;;;;;;;6.16;51.65;99059.40;218205;1278;22551;-69
2022/04/14 00:06:15;;;;;;;22.40;12.40;;;;;;;6.11;51.72;99063.23;218608;1279;22703;-69
2022/04/14 00:11:38;;;;;;;19.70;11.60;;;;;;;6.05;51.88;99059.77;218537;1279;22679;-70
2022/04/14 00:16:44;;;;;;;18.10;11.30;;;;;;;5.96;52.48;99059.83;218556;1280;22567;-69
2022/04/14 00:21:47;;;;;;;17.50;10.70;;;;;;;5.88;52.62;99054.35;218535;1279;22786;-70
2022/04/14 00:26:50;;;;;;;17.60;11.00;;;;;;;5.79;52.88;99052.40;218387;1280;22631;-70
2022/04/14 00:31:53;;;;;;;17.40;10.70;;;;;;;5.70;53.12;99050.08;218684;1278;24410;-69
2022/04/14 00:36:57;;;;;;;16.70;10.40;;;;;;;5.62;53.32;99047.77;218470;1279;22541;-69
2022/04/14 00:42:00;;;;;;;20.30;12.40;;;;;;;5.56;53.29;99048.74;218432;1279;22584;-70
2022/04/14 00:47:04;;;;;;;21.90;13.40;;;;;;;5.53;53.24;99050.25;218868;1279;24255;-68
2022/04/14 00:52:09;;;;;;;20.40;11.80;;;;;;;5.50;53.52;99049.05;218547;1279;25308;-70
2022/04/14 00:57:15;;;;;;;20.00;12.20;;;;;;;5.49;53.59;99053.09;218369;1279;22771;-69
2022/04/14 01:02:18;;;;;;;24.40;13.40;;;;;;;5.50;53.76;99049.39;218569;1279;22584;-69
2022/04/14 01:07:22;;;;;;;21.40;13.60;;;;;;;5.49;53.89;99043.14;218568;1278;22720;-70
2022/04/14 01:12:24;;;;;;;22.10;13.00;;;;;;;5.49;53.78;99042.29;218454;1277;22646;-69
2022/04/14 01:17:27;;;;;;;22.00;13.60;;;;;;;5.46;54.45;99044.23;218470;1279;24305;-69
2022/04/14 01:22:34;;;;;;;21.10;12.90;;;;;;;5.41;54.46;99041.83;218652;1279;25324;-69
2022/04/14 01:27:40;;;;;;;25.30;14.00;;;;;;;5.38;54.53;99041.84;218492;1279;22635;-70
2022/04/14 01:32:43;;;;;;;22.70;13.50;;;;;;;5.31;54.62;99044.73;218280;1279;22856;-69
2022/04/14 01:37:46;;;;;;;25.10;14.90;;;;;;;5.22;54.73;99041.60;218533;1279;24334;-69
2022/04/14 01:42:49;;;;;;;25.30;15.30;;;;;;;5.13;55.24;99041.16;218612;1279;24205;-69
2022/04/14 01:47:52;;;;;;;30.90;15.40;;;;;;;5.05;55.58;99050.29;218569;1279;25253;-69
2022/04/14 01:52:55;;;;;;;25.10;14.50;;;;;;;4.99;55.64;99052.88;218071;1279;22629;-69
2022/04/14 01:57:57;;;;;;;26.30;15.00;;;;;;;5.00;56.01;99050.48;218183;1279;22703;-68
2022/04/14 02:03:00;;;;;;;26.10;15.00;;;;;;;4.99;56.22;99045.38;218255;1279;22629;-70
2022/04/14 02:08:03;;;;;;;25.80;15.00;;;;;;;4.94;56.40;99041.54;218712;1277;22540;-70
2022/04/14 02:13:06;;;;;;;27.70;16.00;;;;;;;4.90;56.63;99045.58;218529;1279;22724;-67
2022/04/14 02:18:09;;;;;;;23.50;13.60;;;;;;;4.88;56.91;99043.65;218644;1279;24270;-69
2022/04/14 02:23:11;;;;;;;25.50;14.70;;;;;;;4.88;57.12;99041.24;218382;1279;22639;-68
2022/04/14 02:28:14;;;;;;;26.40;14.60;;;;;;;4.86;57.26;99040.48;218482;1279;25427;-68
2022/04/14 02:33:18;;;;;;;25.80;14.90;;;;;;;4.82;57.24;99034.73;218190;1279;22611;-68
2022/04/14 02:38:21;;;;;;;23.50;14.20;;;;;;;4.78;57.24;99034.73;218191;1279;24295;-69
2022/04/14 02:43:23;;;;;;;25.90;14.90;;;;;;;4.76;57.72;99032.27;218365;1279;22566;-69
2022/04/14 02:48:27;;;;;;;25.10;14.30;;;;;;;4.72;57.92;99029.04;218303;1279;22560;-69
2022/04/14 02:53:32;;;;;;;25.20;14.40;;;;;;;4.67;58.23;99026.31;219041;1279;26371;-68
2022/04/14 02:58:37;;;;;;;28.00;15.70;;;;;;;4.65;58.39;99025.47;218818;1279;25401;-69
2022/04/14 03:03:40;;;;;;;24.70;14.10;;;;;;;4.60;58.49;99026.52;218563;1279;25273;-69
2022/04/14 03:08:43;;;;;;;26.20;15.20;;;;;;;4.57;58.79;99028.05;218692;1277;24244;-70
2022/04/14 03:13:48;;;;;;;26.60;15.90;;;;;;;4.54;59.01;99025.48;218786;1279;25260;-69
2022/04/14 03:19:00;;;;;;;24.80;15.00;;;;;;;4.51;59.22;99023.46;218618;1279;25341;-68
2022/04/14 03:24:03;;;;;;;24.50;16.20;;;;;;;4.47;59.30;99026.80;218450;1279;26440;-69
2022/04/14 03:29:05;;;;;;;28.20;15.50;;;;;;;4.41;59.61;99025.87;218166;1279;26804;-68
2022/04/14 03:34:08;;;;;;;26.70;15.80;;;;;;;4.37;59.92;99026.89;218627;1279;23196;-70
2022/04/14 03:39:11;;;;;;;26.30;15.90;;;;;;;4.32;60.17;99030.16;218696;1279;22632;-69
2022/04/14 03:44:13;;;;;;;26.70;15.90;;;;;;;4.28;60.33;99029.90;218506;1279;22560;-69
2022/04/14 03:49:19;;;;;;;25.00;15.70;;;;;;;4.25;60.54;99032.70;218671;1279;22996;-68
2022/04/14 03:54:22;;;;;;;29.70;16.70;;;;;;;4.21;60.71;99038.52;218396;1279;22541;-68
2022/04/14 03:59:27;;;;;;;30.10;17.00;;;;;;;4.17;60.87;99037.30;218436;1279;22589;-67
2022/04/14 04:04:32;;;;;;;33.10;17.30;;;;;;;4.16;61.13;99040.14;218537;1279;22556;-68
2022/04/14 04:09:34;;;;;;;26.90;15.60;;;;;;;4.16;61.11;99037.81;218533;1278;24374;-69
2022/04/14 04:14:41;;;;;;;31.50;17.70;;;;;;;4.16;61.11;99041.89;218657;1279;22757;-69
2022/04/14 04:19:44;;;;;;;31.10;17.40;;;;;;;4.18;61.20;99040.38;218414;1279;24326;-68
2022/04/14 04:24:48;;;;;;;33.00;17.30;;;;;;;4.23;61.29;99036.17;218862;1279;22561;-68
2022/04/14 04:29:51;;;;;;;33.10;17.70;;;;;;;4.30;61.37;99036.88;218350;1279;24303;-68
2022/04/14 04:34:56;;;;;;;30.40;18.00;;;;;;;4.39;61.51;99042.53;218318;1279;25422;-69
2022/04/14 04:39:59;;;;;;;31.30;18.50;;;;;;;4.49;61.49;99044.55;217925;1279;24300;-70
2022/04/14 04:45:04;;;;;;;34.20;19.60;;;;;;;4.62;61.68;99042.25;218452;1279;22569;-69
2022/04/14 04:50:09;;;;;;;32.70;19.70;;;;;;;4.78;61.69;99041.15;218397;1279;22568;-69
2022/04/14 04:55:13;;;;;;;40.00;21.10;;;;;;;4.94;61.61;99033.95;218518;1279;22555;-69
2022/04/14 05:00:16;;;;;;;32.00;19.90;;;;;;;5.11;61.60;99035.45;218773;1279;22586;-69
2022/04/14 05:05:40;;;;;;;40.90;22.80;;;;;;;5.28;61.47;99040.87;218913;1279;22511;-69
2022/04/14 05:10:45;;;;;;;36.10;20.90;;;;;;;5.46;61.34;99040.77;218869;1279;22619;-69
2022/04/14 05:15:51;;;;;;;40.80;21.70;;;;;;;5.64;61.10;99036.45;218479;1279;22676;-69
2022/04/14 05:20:54;;;;;;;39.00;23.90;;;;;;;5.81;61.07;99034.46;218455;1279;24902;-70
2022/04/14 05:25:57;;;;;;;42.10;24.20;;;;;;;5.99;60.99;99032.84;218376;1279;24227;-69
2022/04/14 05:31:00;;;;;;;36.60;22.40;;;;;;;6.18;61.08;99032.00;218046;1279;25544;-69
2022/04/14 05:36:10;;;;;;;39.30;23.10;;;;;;;6.31;60.34;99029.35;218527;1279;22561;-69
2022/04/14 05:41:16;;;;;;;37.50;21.70;;;;;;;6.44;60.21;99024.98;218179;1279;25405;-70
2022/04/14 05:46:22;;;;;;;38.90;24.20;;;;;;;6.54;60.40;99022.08;218221;1279;22642;-68
2022/04/14 05:51:27;;;;;;;39.70;24.50;;;;;;;6.70;60.98;99022.66;218344;1279;22603;-69
2022/04/14 05:56:30;;;;;;;42.90;26.30;;;;;;;6.88;61.40;99024.42;218000;1279;22573;-69
2022/04/14 06:01:38;;;;;;;61.00;28.60;;;;;;;7.09;61.86;99027.25;217631;1279;25518;-69
2022/04/14 06:06:41;;;;;;;48.10;29.80;;;;;;;7.33;61.98;99024.20;217544;1279;24464;-68
2022/04/14 06:11:44;;;;;;;53.70;29.80;;;;;;;7.52;61.99;99023.38;217782;1279;26168;-68
2022/04/14 06:16:47;;;;;;;56.60;29.60;;;;;;;7.70;61.98;99023.52;217491;1279;26868;-69
2022/04/14 06:21:52;;;;;;;50.30;29.10;;;;;;;7.95;62.25;99022.30;217670;1279;22754;-69
2022/04/14 06:27:03;;;;;;;53.30;26.00;;;;;;;8.25;62.32;99028.69;218706;1278;22554;-68
2022/04/14 06:32:06;;;;;;;42.60;25.90;;;;;;;8.56;62.30;99027.48;218198;1279;22548;-68
2022/04/14 06:37:11;;;;;;;41.60;24.10;;;;;;;8.90;62.24;99028.66;218143;1279;24264;-70
2022/04/14 06:42:14;;;;;;;43.00;25.60;;;;;;;9.22;62.04;99031.23;218844;1279;24106;-68
2022/04/14 06:47:17;;;;;;;35.40;20.70;;;;;;;9.55;61.97;99027.83;218136;1279;22580;-68
2022/04/14 06:52:21;;;;;;;21.00;13.00;;;;;;;9.92;61.28;99023.98;218198;1280;25807;-68
2022/04/14 06:57:24;;;;;;;20.40;12.90;;;;;;;10.32;59.99;99022.33;218236;1279;22691;-68
2022/04/14 07:02:36;;;;;;;;;;;;;;;;;;;;;
2022/04/14 07:08:00;;;;;;;23.00;13.20;;;;;;;11.10;58.40;99027.44;218023;1279;22560;-68
2022/04/14 07:13:16;;;;;;;17.40;11.20;;;;;;;11.44;57.78;99029.56;218654;1279;26395;-66
2022/04/14 07:18:19;;;;;;;18.30;11.50;;;;;;;11.80;57.18;99030.23;218575;1278;22560;-68
2022/04/14 07:23:30;;;;;;;17.30;11.60;;;;;;;12.15;56.46;99033.18;217876;1279;23443;-68
2022/04/14 07:28:36;;;;;;;20.20;12.80;;;;;;;12.48;56.17;99033.36;217141;1279;735640;-69
2022/04/14 07:33:41;;;;;;;19.20;11.50;;;;;;;12.79;55.15;99032.77;218459;1279;22591;-69
2022/04/14 07:38:43;;;;;;;17.10;10.60;;;;;;;13.05;54.13;99026.76;218276;1279;25469;-69
2022/04/14 07:43:46;;;;;;;17.20;11.60;;;;;;;13.31;53.29;99022.61;218459;1279;24002;-69
2022/04/14 07:48:58;;;;;;;14.10;10.20;;;;;;;13.59;52.89;99030.13;218427;1279;23832;-68
2022/04/14 07:54:10;;;;;;;15.00;10.00;;;;;;;13.92;52.24;99033.50;218292;1278;22782;-69
2022/04/14 07:59:37;;;;;;;;;;;;;;;;;;;;;
2022/04/14 08:05:10;;;;;;;15.70;10.10;;;;;;;14.58;49.83;99036.30;218335;1279;22627;-68
2022/04/14 08:10:24;;;;;;;19.20;9.90;;;;;;;14.85;47.77;99038.01;218823;1280;22705;-69
2022/04/14 08:15:30;;;;;;;15.50;10.00;;;;;;;15.10;46.87;99036.34;218341;1278;24379;-69
2022/04/14 08:20:40;;;;;;;14.50;9.90;;;;;;;15.31;45.04;99033.58;218278;1279;25943;-69
2022/04/14 08:25:43;;;;;;;16.30;9.10;;;;;;;15.52;44.44;99031.31;218521;1277;22546;-69
2022/04/14 08:31:10;;;;;;;11.60;8.10;;;;;;;15.72;44.33;99029.23;218024;1280;22560;-69
2022/04/14 08:36:16;;;;;;;12.10;8.50;;;;;;;15.98;42.69;99030.79;218168;1278;24479;-69
2022/04/14 08:41:27;;;;;;;12.30;8.50;;;;;;;16.17;42.02;99023.88;218137;1278;22676;-69
2022/04/14 08:46:30;;;;;;;10.90;7.60;;;;;;;16.39;42.15;99024.30;218334;1280;24221;-70
2022/04/14 08:51:39;;;;;;;10.70;7.70;;;;;;;16.60;41.73;99020.00;217939;1278;25554;-69
2022/04/14 08:56:41;;;;;;;13.10;7.60;;;;;;;16.81;41.38;99013.98;218924;1279;24413;-71
2022/04/14 09:01:52;;;;;;;14.00;8.00;;;;;;;17.04;40.67;99010.10;218198;1279;25702;-71
2022/04/14 09:07:04;;;;;;;12.70;8.00;;;;;;;17.13;39.03;99005.70;218292;1280;22708;-70
2022/04/14 09:12:13;;;;;;;12.00;7.70;;;;;;;17.17;39.22;99006.17;219931;1279;25104;-70
2022/04/14 09:17:18;;;;;;;10.70;7.10;;;;;;;17.40;40.05;99002.16;219783;1280;22602;-70
2022/04/14 09:22:21;;;;;;;11.60;6.60;;;;;;;17.63;39.50;98998.88;218274;1279;24254;-70
2022/04/14 09:27:31;;;;;;;9.20;6.80;;;;;;;17.78;38.05;98996.11;218376;1278;23459;-70
2022/04/14 09:32:37;;;;;;;9.70;6.20;;;;;;;17.89;37.96;98995.59;218055;1279;24553;-68
2022/04/14 09:38:28;;;;;;;10.20;6.70;;;;;;;18.04;38.28;98989.96;218689;1278;26439;-69
2022/04/14 09:43:33;;;;;;;9.20;6.10;;;;;;;18.24;37.38;98987.48;218308;1281;24347;-69
2022/04/14 09:49:03;;;;;;;9.40;6.90;;;;;;;18.37;37.18;98983.48;218235;1278;22544;-69
2022/04/14 09:54:17;;;;;;;12.30;6.40;;;;;;;18.51;36.85;98976.13;218404;1278;22580;-68
2022/04/14 09:59:25;;;;;;;8.70;6.40;;;;;;;18.67;36.98;98973.19;218028;1280;25659;-68
2022/04/14 10:04:37;;;;;;;10.20;6.20;;;;;;;18.86;37.21;98969.99;217831;1278;22563;-68
2022/04/14 10:09:44;;;;;;;10.20;7.20;;;;;;;19.01;37.05;98971.66;219075;1281;25370;-68
2022/04/14 10:14:57;;;;;;;9.90;7.40;;;;;;;19.08;36.35;98959.00;219973;1279;22566;-69
2022/04/14 10:20:00;;;;;;;10.70;6.90;;;;;;;19.13;35.21;98954.65;217799;1278;25327;-70
2022/04/14 10:25:13;;;;;;;9.50;6.70;;;;;;;19.06;34.95;98948.02;218165;1281;22580;-69
2022/04/14 10:30:20;;;;;;;9.30;6.70;;;;;;;19.20;35.99;98939.17;218094;1277;24258;-68
2022/04/14 10:35:28;;;;;;;13.80;7.60;;;;;;;19.41;35.57;98936.79;218105;1280;24495;-69
2022/04/14 10:40:32;;;;;;;12.50;7.20;;;;;;;19.57;35.03;98939.89;219657;1280;22555;-69
2022/04/14 10:45:52;;;;;;;8.10;6.40;;;;;;;19.72;34.59;98938.60;218237;1278;24326;-68
2022/04/14 10:51:32;;;;;;;10.30;6.90;;;;;;;19.67;32.33;98935.05;218827;1281;22569;-68
2022/04/14 10:56:44;;;;;;;8.80;6.70;;;;;;;19.65;33.19;98930.95;219686;1279;24322;-68
2022/04/14 11:02:04;;;;;;;12.50;7.40;;;;;;;19.73;33.04;98927.20;218642;1280;23117;-69
2022/04/14 11:07:14;;;;;;;17.90;7.80;;;;;;;19.79;32.44;98927.46;218191;1281;27267;-69
2022/04/14 11:12:27;;;;;;;9.90;7.00;;;;;;;19.87;33.15;98919.85;218437;1278;23066;-69
2022/04/14 11:17:37;;;;;;;10.40;7.10;;;;;;;20.04;33.00;98916.02;218588;1278;25260;-69
2022/04/14 11:23:08;;;;;;;12.70;7.70;;;;;;;20.18;32.05;98912.50;218376;1281;22653;-69
2022/04/14 11:28:18;;;;;;;34.00;27.70;;;;;;;20.29;32.37;98908.45;218448;1278;22781;-69
2022/04/14 11:33:33;;;;;;;13.10;9.10;;;;;;;20.39;32.32;98903.09;217989;1281;22538;-69
2022/04/14 11:38:56;;;;;;;12.80;8.30;;;;;;;20.51;32.65;98896.69;217999;1281;24288;-69
2022/04/14 11:44:04;;;;;;;12.10;7.90;;;;;;;20.63;33.01;98895.52;218158;1280;25330;-70
2022/04/14 11:49:14;;;;;;;12.20;8.80;;;;;;;20.83;33.12;98890.17;219617;1280;22706;-71
2022/04/14 11:54:30;;;;;;;11.70;7.80;;;;;;;20.95;32.56;98885.76;219845;1281;24676;-68
2022/04/14 11:59:48;;;;;;;13.50;8.50;;;;;;;21.05;32.12;98874.85;217755;1281;25379;-69
2022/04/14 12:04:56;;;;;;;10.90;7.90;;;;;;;21.18;33.11;98872.73;217453;1280;23152;-69
2022/04/14 12:10:08;;;;;;;11.10;7.80;;;;;;;21.29;32.40;98863.60;217852;1280;24325;-68
2022/04/14 12:15:16;;;;;;;13.00;10.20;;;;;;;21.34;31.87;98865.73;223631;1279;22566;-68
2022/04/14 12:20:24;;;;;;;10.10;7.60;;;;;;;21.40;32.08;98858.67;218774;1280;24353;-68
2022/04/14 12:25:28;;;;;;;10.20;7.60;;;;;;;21.46;31.24;98851.88;218088;1278;22567;-69
2022/04/14 12:30:42;;;;;;;11.20;6.70;;;;;;;21.52;31.28;98854.66;217946;1278;24801;-68
2022/04/14 12:35:47;;;;;;;11.60;8.00;;;;;;;21.63;31.17;98844.83;218695;1278;22740;-68
2022/04/14 12:41:03;;;;;;;10.50;6.80;;;;;;;21.77;31.27;98844.54;217777;1280;22710;-69
2022/04/14 12:46:27;;;;;;;7.50;6.10;;;;;;;21.79;30.23;98835.70;219690;1280;23061;-69
2022/04/14 12:51:35;;;;;;;8.30;6.30;;;;;;;21.71;30.56;98832.84;218928;1279;22668;-69
2022/04/14 12:57:05;;;;;;;8.00;5.50;;;;;;;21.67;30.40;98823.33;217897;1279;22569;-69
2022/04/14 13:02:10;;;;;;;5.90;5.00;;;;;;;21.74;30.71;98815.90;218389;1279;22584;-68
2022/04/14 13:07:16;;;;;;;8.90;6.10;;;;;;;21.83;30.68;98808.66;218542;1280;24093;-68
2022/04/14 13:12:48;;;;;;;6.40;5.20;;;;;;;21.91;29.89;98796.17;218127;1279;22585;-69
2022/04/14 13:17:58;;;;;;;6.10;4.40;;;;;;;21.93;29.51;98790.27;220641;1279;22542;-69
2022/04/14 13:23:08;;;;;;;5.60;4.50;;;;;;;21.94;28.57;98783.37;219077;1279;24256;-69
2022/04/14 13:28:15;;;;;;;7.00;4.60;;;;;;;21.92;28.76;98781.31;219053;1278;26349;-68
2022/04/14 13:33:18;;;;;;;6.40;5.10;;;;;;;21.90;28.86;98778.94;217835;1278;26524;-69
2022/04/14 13:38:20;;;;;;;4.50;3.80;;;;;;;21.91;29.22;98777.33;217777;1279;24279;-70
2022/04/14 13:43:26;;;;;;;5.20;3.60;;;;;;;22.01;28.54;98775.46;217884;1278;22675;-70
2022/04/14 13:48:32;;;;;;;4.30;3.50;;;;;;;22.11;29.07;98770.15;218056;1279;24159;-70
2022/04/14 13:53:39;;;;;;;5.80;3.80;;;;;;;22.13;28.86;98772.77;218547;1278;22582;-70
2022/04/14 13:58:46;;;;;;;3.80;3.40;;;;;;;22.08;29.04;98770.88;217790;1279;22483;-69
2022/04/14 14:03:55;;;;;;;3.10;2.70;;;;;;;21.99;28.72;98757.90;218692;1279;22555;-69
2022/04/14 14:09:01;;;;;;;4.80;2.80;;;;;;;21.96;28.39;98756.73;218423;1279;22564;-69
2022/04/14 14:14:07;;;;;;;5.20;3.20;;;;;;;22.00;28.35;98760.32;218249;1279;23836;-70
2022/04/14 14:19:10;;;;;;;5.30;3.60;;;;;;;21.97;28.41;98754.36;218865;1281;22591;-69
2022/04/14 14:24:18;;;;;;;4.30;3.40;;;;;;;21.98;28.50;98752.80;219083;1278;22542;-69
2022/04/14 14:29:29;;;;;;;4.20;2.90;;;;;;;21.99;28.16;98747.84;218104;1279;23974;-70
2022/04/14 14:34:32;;;;;;;5.60;4.10;;;;;;;22.03;28.14;98749.09;218261;1280;22545;-70
2022/04/14 14:39:35;;;;;;;5.70;3.40;;;;;;;22.05;28.78;98744.66;218187;1279;22552;-70
2022/04/14 14:44:45;;;;;;;4.70;3.20;;;;;;;22.08;28.18;98741.20;219109;1278;24496;-70
2022/04/14 14:49:51;;;;;;;3.70;3.10;;;;;;;22.04;28.79;98739.73;218099;1279;22577;-70
2022/04/14 14:54:59;;;;;;;3.60;3.00;;;;;;;22.09;28.89;98733.41;218093;1279;22593;-70
2022/04/14 15:00:12;;;;;;;3.20;2.90;;;;;;;22.11;29.08;98734.38;218099;1278;23148;-70
2022/04/14 15:05:19;;;;;;;3.50;3.00;;;;;;;22.11;28.74;98736.65;218676;1279;24859;-69
2022/04/14 15:10:24;;;;;;;3.60;2.70;;;;;;;22.04;28.32;98736.16;218263;1279;23740;-70
2022/04/14 15:15:27;;;;;;;4.50;2.80;;;;;;;21.95;28.05;98734.84;218202;1279;22728;-70
2022/04/14 15:20:35;;;;;;;5.40;3.40;;;;;;;21.88;28.71;98729.05;218206;1279;25498;-70
2022/04/14 15:25:48;;;;;;;4.00;3.10;;;;;;;21.85;28.67;98728.84;219942;1279;22739;-70
2022/04/14 15:31:23;;;;;;;4.20;2.80;;;;;;;21.82;29.20;98732.45;219592;1279;22603;-70
2022/04/14 15:36:51;;;;;;;2.60;2.40;;;;;;;21.77;28.60;98726.16;219586;1279;22963;-69
2022/04/14 15:41:53;;;;;;;3.70;2.30;;;;;;;21.70;28.86;98727.82;219677;1279;23503;-71
2022/04/14 15:46:55;;;;;;;4.90;2.80;;;;;;;21.67;28.97;98723.42;218509;1279;23883;-70
2022/04/14 15:52:11;;;;;;;5.00;3.50;;;;;;;21.61;29.10;98717.54;218456;1281;22560;-70
2022/04/14 15:57:19;;;;;;;2.70;2.40;;;;;;;21.53;28.83;98717.71;218578;1279;22591;-70
2022/04/14 16:02:22;;;;;;;9.50;4.10;;;;;;;21.42;29.06;98723.73;219574;1279;22556;-70
2022/04/14 16:07:26;;;;;;;4.30;3.20;;;;;;;21.34;29.48;98725.77;219728;1278;22580;-71
2022/04/14 16:12:29;;;;;;;4.30;3.00;;;;;;;21.23;29.58;98729.08;219719;1277;24390;-70
2022/04/14 16:17:33;;;;;;;3.70;2.80;;;;;;;21.12;29.87;98727.77;218643;1277;23396;-70
2022/04/14 16:22:46;;;;;;;3.90;2.30;;;;;;;21.01;30.18;98728.49;219795;1277;22545;-70
2022/04/14 16:28:01;;;;;;;4.00;2.60;;;;;;;20.86;30.36;98730.16;219581;1277;25431;-71
2022/04/14 16:33:12;;;;;;;3.10;2.20;;;;;;;20.66;30.42;98729.65;219597;1277;22691;-71
2022/04/14 16:38:24;;;;;;;3.30;2.60;;;;;;;20.48;30.62;98726.52;219562;1277;22767;-71
2022/04/14 16:43:27;;;;;;;2.50;2.20;;;;;;;20.28;31.18;98727.72;219421;1277;22574;-70
2022/04/14 16:48:32;;;;;;;2.20;2.00;;;;;;;20.07;31.31;98731.52;219377;1277;22555;-70
2022/04/14 16:53:36;;;;;;;5.20;2.60;;;;;;;19.85;31.57;98735.48;218388;1279;22827;-70
2022/04/14 16:58:39;;;;;;;2.70;2.50;;;;;;;19.64;31.89;98736.44;219447;1279;23445;-70
2022/04/14 17:03:45;;;;;;;3.30;2.70;;;;;;;19.41;32.14;98739.80;218435;1279;24128;-70
2022/04/14 17:08:49;;;;;;;5.00;3.50;;;;;;;19.14;32.65;98738.64;218254;1277;25396;-71
2022/04/14 17:13:51;;;;;;;3.80;3.00;;;;;;;18.87;33.21;98742.29;219340;1279;25257;-70
2022/04/14 17:18:54;;;;;;;3.30;2.70;;;;;;;18.58;33.58;98747.11;219719;1277;22704;-71
2022/04/14 17:29:19;;;;;;;3.30;2.40;;;;;;;18.01;34.37;98755.52;219389;1277;24296;-71
2022/04/14 17:34:22;;;;;;;5.50;3.50;;;;;;;17.75;34.76;98762.15;219505;1278;23218;-71
2022/04/14 17:39:25;;;;;;;8.30;3.70;;;;;;;17.50;35.11;98764.64;219586;1277;25368;-70
2022/04/14 17:44:29;;;;;;;5.50;3.40;;;;;;;17.26;35.41;98765.43;219709;1277;27433;-70
2022/04/14 17:49:33;;;;;;;5.20;4.10;;;;;;;16.99;35.84;98767.11;219424;1279;22594;-70
2022/04/14 17:54:36;;;;;;;6.30;3.80;;;;;;;16.75;36.30;98773.16;219230;1279;22634;-72
2022/04/14 17:59:38;;;;;;;8.70;5.20;;;;;;;16.57;36.76;98783.05;219494;1279;22610;-70
2022/04/14 18:04:45;;;;;;;7.50;4.80;;;;;;;16.43;37.16;98785.77;219445;1279;22556;-70
2022/04/14 18:09:47;;;;;;;5.90;4.60;;;;;;;16.22;37.38;98788.21;219410;1277;22636;-70
2022/04/14 18:14:54;;;;;;;8.40;5.70;;;;;;;16.01;37.81;98786.23;219553;1277;22619;-70
2022/04/14 18:19:58;;;;;;;7.90;6.00;;;;;;;15.83;38.23;98793.68;219629;1277;22940;-71
2022/04/14 18:25:01;;;;;;;13.50;8.40;;;;;;;15.76;38.61;98795.98;219414;1278;22573;-71
2022/04/14 18:30:22;;;;;;;7.10;5.50;;;;;;;15.68;38.96;98800.89;219365;1277;22878;-70
2022/04/14 18:35:30;;;;;;;5.40;4.50;;;;;;;15.60;39.18;98801.32;219302;1277;22505;-71
2022/04/14 18:40:42;;;;;;;6.70;5.10;;;;;;;15.52;39.55;98802.98;219312;1277;22694;-71
2022/04/14 18:45:49;;;;;;;10.50;7.40;;;;;;;15.42;39.79;98810.46;219677;1277;25258;-70
2022/04/14 18:50:53;;;;;;;9.60;6.60;;;;;;;15.29;40.17;98801.77;219289;1279;26412;-71
2022/04/14 18:55:58;;;;;;;10.80;7.40;;;;;;;15.17;40.51;98803.80;219150;1279;22560;-70
2022/04/14 19:01:02;;;;;;;10.10;5.80;;;;;;;15.04;40.87;98804.21;219281;1279;24342;-71
2022/04/14 19:06:10;;;;;;;8.80;6.80;;;;;;;14.93;41.12;98806.43;219537;1279;22584;-70
2022/04/14 19:11:14;;;;;;;7.30;5.30;;;;;;;14.86;41.53;98807.44;219361;1277;22660;-70
2022/04/14 19:16:17;;;;;;;8.40;4.80;;;;;;;14.83;41.64;98808.02;219202;1279;22570;-71
2022/04/14 19:21:22;;;;;;;9.90;5.90;;;;;;;14.79;41.88;98808.48;219381;1279;22554;-70
2022/04/14 19:26:25;;;;;;;9.60;6.70;;;;;;;14.71;41.98;98808.28;219306;1279;424160;-71
2022/04/14 19:31:29;;;;;;;9.30;5.90;;;;;;;14.68;42.20;98807.55;219262;1279;22573;-71
2022/04/14 19:36:33;;;;;;;13.40;8.50;;;;;;;14.67;42.28;98810.94;219345;1279;22670;-70
2022/04/14 19:41:39;;;;;;;13.20;8.00;;;;;;;14.63;42.30;98814.60;219735;1279;22633;-70
2022/04/14 19:46:44;;;;;;;13.60;9.10;;;;;;;14.60;42.52;98810.25;219657;1279;23065;-71
2022/04/14 19:51:47;;;;;;;11.20;7.40;;;;;;;14.55;42.65;98808.30;218222;1280;22540;-70
2022/04/14 19:56:52;;;;;;;9.20;6.90;;;;;;;14.48;42.75;98807.79;219396;1279;23984;-71
2022/04/14 20:02:00;;;;;;;11.70;7.10;;;;;;;14.39;43.01;98810.71;219524;1279;22633;-70
2022/04/14 20:07:06;;;;;;;10.70;7.00;;;;;;;14.29;43.14;98809.22;219450;1279;25334;-70
2022/04/14 20:12:10;;;;;;;9.30;6.50;;;;;;;14.18;43.33;98816.31;219619;1279;23067;-70
2022/04/14 20:17:13;;;;;;;10.30;6.40;;;;;;;14.06;43.60;98817.85;218404;1279;22555;-70
2022/04/14 20:22:16;;;;;;;10.30;7.00;;;;;;;13.98;43.69;98815.80;218375;1279;22898;-71
2022/04/14 20:27:18;;;;;;;10.30;6.60;;;;;;;13.91;43.87;98811.30;219392;1279;25423;-71
2022/04/14 20:32:24;;;;;;;12.20;6.90;;;;;;;13.87;43.95;98811.52;219404;1279;24343;-71
2022/04/14 20:37:28;;;;;;;11.60;7.70;;;;;;;13.86;44.01;98812.50;219678;1279;24719;-71
2022/04/14 20:42:31;;;;;;;12.90;7.50;;;;;;;13.85;43.98;98814.29;219335;1279;25160;-71
2022/04/14 20:47:34;;;;;;;10.70;7.60;;;;;;;13.85;44.06;98814.52;219461;1279;26460;-71
2022/04/14 20:52:38;;;;;;;11.90;7.80;;;;;;;13.82;44.09;98815.73;219267;1279;22561;-72
2022/04/14 20:57:41;;;;;;;13.30;7.90;;;;;;;13.76;44.28;98816.86;219378;1279;22555;-71
2022/04/14 21:02:43;;;;;;;12.80;8.40;;;;;;;13.68;44.38;98818.13;219317;1279;23499;-70
2022/04/14 21:07:46;;;;;;;13.20;8.00;;;;;;;13.60;44.51;98815.57;219384;1279;22621;-71
2022/04/14 21:12:49;;;;;;;13.20;8.10;;;;;;;13.51;44.61;98819.89;219226;1279;22714;-71
2022/04/14 21:17:57;;;;;;;14.00;7.40;;;;;;;13.43;44.66;98819.45;219662;1278;23481;-70
2022/04/14 21:23:00;;;;;;;11.00;7.60;;;;;;;13.36;44.78;98819.70;219874;1278;25322;-70
2022/04/14 21:28:03;;;;;;;9.70;7.00;;;;;;;13.27;44.82;98817.84;219590;1280;22631;-70
2022/04/14 21:33:10;;;;;;;11.40;7.10;;;;;;;13.16;44.99;98814.06;219599;1277;22719;-71
2022/04/14 21:38:12;;;;;;;9.70;6.30;;;;;;;13.08;45.13;98810.20;219450;1278;25317;-70
2022/04/14 21:43:35;;;;;;;9.20;6.60;;;;;;;13.08;45.04;98807.52;219409;1278;22569;-70
2022/04/14 21:48:39;;;;;;;7.10;5.20;;;;;;;13.12;44.86;98805.92;219343;1278;22489;-71
2022/04/14 21:53:41;;;;;;;8.20;5.50;;;;;;;13.20;44.51;98806.34;218898;1279;26516;-70
2022/04/14 21:58:45;;;;;;;8.40;5.10;;;;;;;13.28;44.13;98798.93;218368;1279;22603;-70
2022/04/14 22:03:50;;;;;;;7.20;5.10;;;;;;;13.34;43.86;98796.80;218170;1279;22831;-70
2022/04/14 22:08:53;;;;;;;7.50;4.90;;;;;;;13.39;43.68;98794.29;218084;1279;22642;-72
2022/04/14 22:13:56;;;;;;;7.30;5.10;;;;;;;13.42;43.75;98787.18;218234;1280;22677;-71
2022/04/14 22:18:59;;;;;;;9.30;5.50;;;;;;;13.40;44.03;98783.94;218325;1277;22567;-71
2022/04/14 22:24:02;;;;;;;9.10;6.00;;;;;;;13.33;44.34;98783.55;219442;1278;25363;-70
2022/04/14 22:29:09;;;;;;;7.80;5.60;;;;;;;13.25;44.66;98782.77;218613;1278;22545;-70
2022/04/14 22:34:11;;;;;;;7.60;5.60;;;;;;;13.15;45.04;98784.11;219480;1277;23044;-71
2022/04/14 22:39:14;;;;;;;8.90;6.00;;;;;;;13.05;45.42;98789.04;219296;1278;25436;-70
2022/04/14 22:44:17;;;;;;;11.80;7.50;;;;;;;12.95;46.20;98793.08;218422;1278;25340;-71
2022/04/14 22:49:19;;;;;;;14.10;7.50;;;;;;;12.86;46.87;98793.91;218252;1279;22571;-71
2022/04/14 22:54:21;;;;;;;12.30;8.00;;;;;;;12.75;47.54;98794.64;218992;1279;24482;-70
2022/04/14 22:59:24;;;;;;;11.30;7.60;;;;;;;12.66;48.34;98797.46;218988;1279;26715;-70
2022/04/14 23:04:26;;;;;;;11.10;7.30;;;;;;;12.62;49.15;98802.50;219315;1279;25445;-70
2022/04/14 23:09:29;;;;;;;12.70;7.30;;;;;;;12.57;49.65;98802.77;219049;1279;23202;-71
2022/04/14 23:14:34;;;;;;;12.20;8.40;;;;;;;12.51;50.22;98801.23;219402;1278;22591;-71
2022/04/14 23:19:40;;;;;;;13.30;9.20;;;;;;;12.44;51.01;98801.40;219306;1278;22591;-71
2022/04/14 23:24:46;;;;;;;14.60;9.70;;;;;;;12.39;51.79;98808.39;219510;1278;22566;-71
2022/04/14 23:29:48;;;;;;;15.40;10.20;;;;;;;12.32;52.49;98810.71;219513;1280;22551;-71
2022/04/14 23:34:51;;;;;;;13.90;10.40;;;;;;;12.26;53.07;98812.98;219297;1278;22782;-71
2022/04/14 23:40:54;;;;;;;16.50;11.00;;;;;;;12.21;53.88;98813.46;219298;1278;22708;-69
2022/04/14 23:45:19;;;;;;;18.50;11.30;;;;;;;12.18;54.36;98820.41;219130;1277;22578;-71